createdAt,value
2022-09-12T00:00:06.042Z,8.87
2022-09-12T00:01:14.627Z,8.70
2022-09-12T00:02:16.016Z,9.10
2022-09-12T00:03:17.478Z,8.57
2022-09-12T00:04:18.786Z,9.00
2022-09-12T00:05:21.010Z,9.00
2022-09-12T00:06:24.029Z,9.10
2022-09-12T00:07:25.402Z,8.83
2022-09-12T00:08:26.747Z,9.93
2022-09-12T00:09:28.147Z,8.53
2022-09-12T00:10:29.607Z,9.13
2022-09-12T00:11:31.222Z,9.13
2022-09-12T00:12:32.947Z,9.53
2022-09-12T00:13:38.339Z,9.43
2022-09-12T00:14:42.307Z,9.67
2022-09-12T00:15:44.260Z,9.10
2022-09-12T00:16:45.649Z,8.73
2022-09-12T00:17:46.958Z,9.27
2022-09-12T00:18:48.381Z,9.10
2022-09-12T00:19:49.770Z,8.33
2022-09-12T00:20:51.116Z,8.80
2022-09-12T00:21:52.627Z,9.50
2022-09-12T00:22:54.094Z,8.73
2022-09-12T00:23:55.605Z,9.10
2022-09-12T00:24:57.116Z,8.97
2022-09-12T00:25:58.744Z,8.73
2022-09-12T00:27:00.092Z,9.23
2022-09-12T00:28:01.704Z,8.23
2022-09-12T00:29:03.553Z,8.17
2022-09-12T00:30:05.206Z,8.20
2022-09-12T00:31:09.659Z,8.27
2022-09-12T00:32:10.990Z,8.17
2022-09-12T00:33:12.566Z,8.30
2022-09-12T00:34:13.928Z,8.10
2022-09-12T00:35:18.361Z,8.43
2022-09-12T00:36:20.774Z,7.60
2022-09-12T00:37:22.188Z,7.67
2022-09-12T00:38:23.565Z,7.60
2022-09-12T00:39:24.912Z,8.23
2022-09-12T00:40:28.589Z,8.00
2022-09-12T00:41:32.027Z,7.77
2022-09-12T00:42:33.430Z,8.03
2022-09-12T00:43:39.398Z,7.90
2022-09-12T00:44:45.075Z,7.70
2022-09-12T00:45:46.456Z,8.53
2022-09-12T00:46:50.550Z,8.60
2022-09-12T00:47:51.902Z,7.87
2022-09-12T00:49:14.153Z,8.10
2022-09-12T00:50:16.174Z,8.30
2022-09-12T00:51:18.965Z,7.87
2022-09-12T00:52:32.775Z,7.80
2022-09-12T00:53:34.386Z,8.10
2022-09-12T00:54:42.846Z,7.80
2022-09-12T00:55:46.456Z,8.03
2022-09-12T00:56:51.726Z,7.83
2022-09-12T00:57:58.611Z,7.53
2022-09-12T00:59:02.305Z,7.60
2022-09-12T01:00:13.873Z,7.60
2022-09-12T01:01:15.408Z,7.83
2022-09-12T01:02:16.837Z,7.03
2022-09-12T01:03:20.257Z,7.33
2022-09-12T01:04:23.345Z,6.97
2022-09-12T01:05:25.051Z,7.37
2022-09-12T01:06:28.451Z,7.40
2022-09-12T01:07:30.209Z,7.80
2022-09-12T01:08:32.988Z,7.87
2022-09-12T01:09:34.416Z,7.37
2022-09-12T01:10:37.828Z,7.47
2022-09-12T01:11:39.650Z,7.80
2022-09-12T01:12:42.356Z,8.10
2022-09-12T01:13:44.312Z,7.53
2022-09-12T01:14:45.733Z,7.70
2022-09-12T01:15:47.176Z,7.70
2022-09-12T01:16:49.865Z,8.17
2022-09-12T01:17:58.435Z,9.37
2022-09-12T01:19:22.132Z,7.33
2022-09-12T01:20:26.484Z,7.47
2022-09-12T01:21:30.931Z,7.53
2022-09-12T01:22:44.548Z,7.47
2022-09-12T01:23:57.213Z,7.60
2022-09-12T01:25:04.427Z,7.60
2022-09-12T01:26:24.444Z,7.57
2022-09-12T01:27:26.637Z,8.20
2022-09-12T01:28:46.716Z,8.10
2022-09-12T01:30:06.630Z,8.07
2022-09-12T01:31:12.456Z,7.70
2022-09-12T01:32:23.869Z,8.10
2022-09-12T01:33:31.949Z,7.80
2022-09-12T01:34:39.317Z,7.70
2022-09-12T01:35:45.595Z,8.13
2022-09-12T01:37:00.665Z,7.67
2022-09-12T01:38:01.917Z,7.70
2022-09-12T01:39:05.140Z,7.50
2022-09-12T01:40:14.529Z,7.40
2022-09-12T01:41:30.398Z,6.87
2022-09-12T01:42:41.920Z,6.93
2022-09-12T01:43:51.895Z,7.47
2022-09-12T01:45:05.298Z,7.10
2022-09-12T01:46:15.637Z,7.33
2022-09-12T01:47:22.123Z,7.10
2022-09-12T01:48:26.820Z,7.53
2022-09-12T01:49:31.267Z,7.70
2022-09-12T01:50:35.584Z,7.50
2022-09-12T01:51:42.374Z,7.23
2022-09-12T01:52:46.523Z,7.60
2022-09-12T01:53:52.940Z,7.40
2022-09-12T01:55:09.440Z,8.13
2022-09-12T01:56:14.283Z,7.53
2022-09-12T01:57:21.872Z,7.37
2022-09-12T01:58:33.336Z,8.00
2022-09-12T01:59:37.109Z,7.60
2022-09-12T02:00:48.043Z,7.60
2022-09-12T02:01:56.224Z,7.53
2022-09-12T02:03:12.463Z,7.53
2022-09-12T02:04:20.531Z,7.70
2022-09-12T02:05:31.259Z,7.20
2022-09-12T02:06:43.552Z,7.30
2022-09-12T02:07:52.012Z,7.93
2022-09-12T02:08:54.997Z,7.60
2022-09-12T02:10:04.073Z,7.43
2022-09-12T02:11:07.737Z,7.80
2022-09-12T02:12:10.966Z,7.63
2022-09-12T02:13:17.486Z,7.73
2022-09-12T02:14:21.586Z,7.70
2022-09-12T02:15:26.270Z,7.03
2022-09-12T02:16:40.243Z,7.47
2022-09-12T02:17:44.173Z,7.27
2022-09-12T02:18:47.548Z,7.83
2022-09-12T02:19:51.299Z,7.60
2022-09-12T02:20:53.170Z,6.93
2022-09-12T02:21:56.224Z,7.13
2022-09-12T02:22:57.736Z,7.20
2022-09-12T02:24:01.311Z,7.03
2022-09-12T02:25:03.405Z,6.53
2022-09-12T02:26:08.646Z,7.30
2022-09-12T02:27:12.576Z,6.97
2022-09-12T02:28:15.427Z,6.90
2022-09-12T02:29:16.903Z,6.97
2022-09-12T02:30:19.385Z,7.33
2022-09-12T02:31:27.597Z,6.83
2022-09-12T02:32:36.369Z,7.63
2022-09-12T02:34:08.078Z,7.13
2022-09-12T02:35:14.699Z,6.90
2022-09-12T02:36:27.895Z,7.53
2022-09-12T02:37:46.339Z,7.77
2022-09-12T02:38:48.228Z,7.60
2022-09-12T02:39:49.644Z,7.23
2022-09-12T02:40:51.037Z,7.23
2022-09-12T02:41:52.985Z,7.10
2022-09-12T02:42:54.355Z,7.30
2022-09-12T02:43:55.808Z,7.20
2022-09-12T02:44:57.380Z,7.63
2022-09-12T02:45:58.918Z,7.23
2022-09-12T02:47:04.149Z,7.90
2022-09-12T02:48:13.267Z,8.33
2022-09-12T02:49:15.912Z,7.80
2022-09-12T02:50:17.728Z,8.07
2022-09-12T02:51:23.490Z,7.47
2022-09-12T02:52:25.782Z,7.90
2022-09-12T02:53:27.318Z,7.63
2022-09-12T02:54:29.286Z,7.57
2022-09-12T02:55:32.301Z,7.80
2022-09-12T02:56:34.126Z,7.77
2022-09-12T02:57:35.404Z,7.70
2022-09-12T02:58:36.888Z,7.93
2022-09-12T02:59:38.186Z,7.60
2022-09-12T03:01:12.332Z,7.63
2022-09-12T03:02:25.194Z,7.70
2022-09-12T03:03:26.503Z,7.93
2022-09-12T03:04:46.877Z,7.27
2022-09-12T03:05:51.415Z,7.30
2022-09-12T03:06:58.552Z,7.13
2022-09-12T03:08:14.547Z,7.57
2022-09-12T03:09:18.481Z,7.80
2022-09-12T03:10:19.759Z,7.77
2022-09-12T03:11:39.547Z,7.40
2022-09-12T03:12:53.019Z,7.70
2022-09-12T03:14:07.173Z,7.57
2022-09-12T03:15:08.616Z,7.33
2022-09-12T03:16:10.023Z,7.30
2022-09-12T03:17:19.284Z,7.93
2022-09-12T03:18:29.745Z,8.10
2022-09-12T03:19:40.192Z,6.80
2022-09-12T03:20:59.484Z,6.93
2022-09-12T03:22:04.309Z,7.63
2022-09-12T03:23:09.499Z,7.67
2022-09-12T03:24:30.021Z,7.40
2022-09-12T03:25:35.923Z,7.43
2022-09-12T03:26:40.226Z,7.73
2022-09-12T03:28:00.264Z,7.30
2022-09-12T03:29:03.377Z,8.03
2022-09-12T03:30:06.118Z,7.37
2022-09-12T03:31:17.976Z,8.37
2022-09-12T03:32:19.265Z,7.30
2022-09-12T03:33:21.468Z,7.80
2022-09-12T03:34:23.347Z,8.03
2022-09-12T03:35:25.007Z,8.23
2022-09-12T03:36:27.689Z,7.20
2022-09-12T03:37:29.046Z,7.80
2022-09-12T03:38:30.314Z,7.63
2022-09-12T03:39:31.816Z,7.70
2022-09-12T03:40:33.313Z,7.80
2022-09-12T03:41:34.598Z,7.40
2022-09-12T03:42:35.918Z,7.73
2022-09-12T03:43:37.230Z,8.17
2022-09-12T03:44:38.568Z,7.93
2022-09-12T03:45:40.091Z,7.97
2022-09-12T03:46:41.403Z,7.93
2022-09-12T03:47:42.981Z,7.57
2022-09-12T03:48:44.371Z,8.03
2022-09-12T03:49:46.646Z,8.07
2022-09-12T03:50:47.933Z,8.07
2022-09-12T03:51:49.258Z,8.03
2022-09-12T03:52:50.597Z,7.63
2022-09-12T03:53:51.919Z,7.83
2022-09-12T03:54:53.176Z,7.73
2022-09-12T03:55:54.438Z,8.77
2022-09-12T03:56:55.792Z,7.83
2022-09-12T03:57:57.111Z,8.50
2022-09-12T03:58:58.428Z,8.27
2022-09-12T03:59:59.899Z,7.83
2022-09-12T04:01:01.241Z,7.80
2022-09-12T04:02:03.009Z,7.83
2022-09-12T04:03:04.310Z,8.30
2022-09-12T04:04:05.648Z,7.80
2022-09-12T04:05:07.042Z,8.70
2022-09-12T04:06:09.247Z,7.77
2022-09-12T04:07:10.894Z,8.47
2022-09-12T04:08:12.283Z,8.27
2022-09-12T04:09:14.040Z,8.13
2022-09-12T04:10:16.285Z,8.63
2022-09-12T04:11:18.585Z,8.23
2022-09-12T04:12:20.090Z,8.43
2022-09-12T04:13:21.606Z,9.13
2022-09-12T04:14:22.910Z,9.23
2022-09-12T04:15:24.203Z,9.70
2022-09-12T04:16:25.539Z,9.53
2022-09-12T04:17:26.862Z,9.30
2022-09-12T04:18:28.303Z,9.50
2022-09-12T04:19:29.627Z,9.10
2022-09-12T04:20:30.973Z,9.13
2022-09-12T04:21:32.290Z,8.97
2022-09-12T04:22:33.743Z,9.23
2022-09-12T04:23:35.554Z,9.00
2022-09-12T04:24:36.850Z,9.03
2022-09-12T04:25:38.189Z,9.00
2022-09-12T04:26:39.461Z,9.17
2022-09-12T04:27:40.754Z,9.60
2022-09-12T04:28:42.215Z,9.27
2022-09-12T04:29:43.647Z,9.97
2022-09-12T04:30:44.977Z,9.73
2022-09-12T04:31:46.332Z,10.77
2022-09-12T04:32:47.603Z,9.63
2022-09-12T04:33:55.493Z,9.97
2022-09-12T04:34:57.113Z,10.50
2022-09-12T04:36:03.254Z,10.47
2022-09-12T04:37:04.639Z,10.43
2022-09-12T04:38:05.988Z,9.43
2022-09-12T04:39:07.779Z,9.70
2022-09-12T04:40:09.417Z,10.67
2022-09-12T04:41:18.425Z,9.80
2022-09-12T04:42:19.721Z,9.80
2022-09-12T04:43:21.086Z,10.43
2022-09-12T04:44:22.523Z,10.00
2022-09-12T04:45:23.809Z,10.07
2022-09-12T04:46:25.716Z,8.93
2022-09-12T04:47:27.098Z,10.13
2022-09-12T04:48:28.356Z,9.83
2022-09-12T04:49:29.680Z,9.40
2022-09-12T04:50:31.097Z,9.70
2022-09-12T04:51:33.706Z,10.80
2022-09-12T04:52:35.057Z,10.90
2022-09-12T04:53:37.139Z,11.30
2022-09-12T04:54:38.436Z,10.87
2022-09-12T04:55:39.706Z,11.27
2022-09-12T04:56:41.983Z,10.83
2022-09-12T04:57:43.348Z,10.57
2022-09-12T04:58:44.724Z,11.40
2022-09-12T04:59:46.016Z,11.03
2022-09-12T05:00:47.305Z,10.73
2022-09-12T05:01:48.787Z,11.13
2022-09-12T05:02:51.238Z,10.80
2022-09-12T05:03:52.564Z,10.63
2022-09-12T05:04:54.191Z,10.63
2022-09-12T05:05:56.536Z,11.03
2022-09-12T05:06:58.630Z,10.70
2022-09-12T05:07:59.903Z,10.80
2022-09-12T05:09:02.097Z,11.03
2022-09-12T05:10:04.172Z,11.40
2022-09-12T05:11:06.881Z,10.70
2022-09-12T05:12:09.376Z,11.57
2022-09-12T05:13:10.711Z,11.53
2022-09-12T05:14:12.080Z,12.13
2022-09-12T05:15:13.421Z,11.27
2022-09-12T05:16:16.059Z,11.07
2022-09-12T05:17:17.422Z,11.20
2022-09-12T05:18:18.853Z,10.63
2022-09-12T05:19:20.169Z,11.17
2022-09-12T05:20:21.531Z,10.40
2022-09-12T05:21:23.237Z,10.43
2022-09-12T05:22:25.113Z,10.13
2022-09-12T05:23:27.643Z,10.13
2022-09-12T05:24:29.011Z,10.03
2022-09-12T05:25:30.405Z,10.10
2022-09-12T05:26:31.667Z,10.67
2022-09-12T05:27:33.021Z,10.30
2022-09-12T05:28:35.467Z,10.50
2022-09-12T05:29:36.789Z,10.70
2022-09-12T05:30:38.099Z,10.57
2022-09-12T05:31:39.472Z,10.40
2022-09-12T05:32:40.795Z,9.97
2022-09-12T05:33:42.974Z,9.90
2022-09-12T05:34:44.342Z,10.10
2022-09-12T05:35:50.799Z,10.53
2022-09-12T05:36:52.082Z,9.43
2022-09-12T05:37:53.409Z,9.80
2022-09-12T05:38:54.962Z,10.63
2022-09-12T05:39:56.690Z,10.40
2022-09-12T05:41:04.145Z,10.23
2022-09-12T05:42:06.042Z,9.83
2022-09-12T05:43:07.346Z,9.17
2022-09-12T05:44:11.002Z,8.77
2022-09-12T05:45:14.119Z,9.43
2022-09-12T05:46:16.657Z,9.43
2022-09-12T05:47:18.825Z,9.40
2022-09-12T05:48:20.112Z,9.03
2022-09-12T05:49:21.622Z,8.23
2022-09-12T05:50:23.215Z,8.97
2022-09-12T05:51:26.493Z,8.87
2022-09-12T05:52:27.808Z,9.53
2022-09-12T05:53:30.029Z,9.27
2022-09-12T05:54:31.893Z,8.70
2022-09-12T05:55:33.263Z,9.13
2022-09-12T05:56:38.796Z,9.67
2022-09-12T05:57:40.163Z,8.97
2022-09-12T05:58:43.201Z,9.60
2022-09-12T05:59:45.234Z,8.77
2022-09-12T06:00:46.516Z,8.57
2022-09-12T06:01:48.678Z,8.60
2022-09-12T06:02:56.121Z,9.17
2022-09-12T06:04:00.570Z,9.40
2022-09-12T06:05:01.928Z,8.50
2022-09-12T06:06:04.138Z,9.03
2022-09-12T06:07:05.448Z,8.07
2022-09-12T06:08:07.017Z,7.90
2022-09-12T06:09:08.646Z,8.83
2022-09-12T06:10:11.942Z,8.30
2022-09-12T06:11:14.930Z,6.93
2022-09-12T06:12:16.249Z,8.67
2022-09-12T06:13:17.598Z,8.53
2022-09-12T06:14:19.451Z,9.03
2022-09-12T06:15:21.039Z,9.53
2022-09-12T06:16:24.567Z,9.23
2022-09-12T06:17:26.467Z,9.30
2022-09-12T06:18:27.966Z,8.13
2022-09-12T06:19:29.357Z,7.47
2022-09-12T06:20:31.204Z,7.07
2022-09-12T06:21:33.941Z,8.43
2022-09-12T06:22:35.328Z,7.43
2022-09-12T06:23:37.031Z,7.97
2022-09-12T06:24:38.394Z,8.50
2022-09-12T06:25:45.676Z,8.57
2022-09-12T06:26:48.266Z,8.10
2022-09-12T06:27:50.284Z,7.67
2022-09-12T06:28:52.346Z,9.00
2022-09-12T06:29:53.784Z,8.93
2022-09-12T06:31:01.362Z,8.40
2022-09-12T06:32:02.788Z,9.07
2022-09-12T06:33:04.168Z,8.90
2022-09-12T06:34:06.724Z,9.07
2022-09-12T06:35:08.341Z,8.18
2022-09-12T06:36:12.510Z,8.70
2022-09-12T06:37:14.158Z,9.57
2022-09-12T06:38:16.640Z,8.70
2022-09-12T06:39:19.532Z,9.70
2022-09-12T06:40:20.835Z,9.30
2022-09-12T06:41:22.373Z,8.50
2022-09-12T06:42:23.699Z,8.63
2022-09-12T06:43:31.123Z,8.10
2022-09-12T06:44:32.420Z,7.68
2022-09-12T06:45:33.822Z,7.78
2022-09-12T06:46:35.173Z,7.75
2022-09-12T06:47:37.123Z,7.95
2022-09-12T06:48:41.939Z,7.55
2022-09-12T06:49:43.957Z,8.15
2022-09-12T06:50:54.922Z,7.72
2022-09-12T06:51:56.224Z,7.30
2022-09-12T06:52:57.493Z,7.70
2022-09-12T06:53:59.044Z,7.93
2022-09-12T06:55:00.473Z,7.70
2022-09-12T06:56:03.420Z,8.55
2022-09-12T06:57:04.744Z,7.82
2022-09-12T06:58:06.850Z,8.00
2022-09-12T06:59:08.534Z,8.02
2022-09-12T07:00:10.168Z,7.88
2022-09-12T07:01:13.129Z,7.65
2022-09-12T07:02:15.078Z,7.30
2022-09-12T07:03:16.514Z,7.57
2022-09-12T07:04:17.824Z,7.47
2022-09-12T07:05:19.185Z,7.93
2022-09-12T07:06:21.734Z,8.02
2022-09-12T07:07:23.023Z,8.02
2022-09-12T07:08:24.293Z,7.80
2022-09-12T07:09:26.337Z,7.80
2022-09-12T07:10:27.673Z,7.70
2022-09-12T07:11:33.437Z,7.47
2022-09-12T07:12:34.719Z,8.68
2022-09-12T07:13:36.093Z,8.25
2022-09-12T07:14:37.391Z,7.45
2022-09-12T07:15:38.721Z,6.32
2022-09-12T07:16:40.090Z,7.88
2022-09-12T07:17:41.453Z,7.35
2022-09-12T07:18:43.484Z,8.40
2022-09-12T07:19:44.736Z,8.27
2022-09-12T07:20:46.078Z,8.55
2022-09-12T07:21:47.389Z,8.27
2022-09-12T07:22:48.703Z,8.38
2022-09-12T07:23:52.006Z,8.18
2022-09-12T07:24:55.640Z,8.93
2022-09-12T07:25:58.091Z,7.82
2022-09-12T07:26:59.390Z,8.85
2022-09-12T07:28:00.717Z,8.82
2022-09-12T07:29:25.119Z,8.93
2022-09-12T07:30:23.682Z,8.50
2022-09-12T07:31:26.029Z,7.78
2022-09-12T07:32:27.492Z,9.02
2022-09-12T07:33:29.261Z,6.88
2022-09-12T07:34:30.585Z,8.82
2022-09-12T07:35:39.507Z,8.75
2022-09-12T07:36:41.154Z,8.30
2022-09-12T07:37:42.881Z,8.02
2022-09-12T07:38:44.672Z,8.55
2022-09-12T07:39:46.035Z,8.02
2022-09-12T07:40:47.401Z,6.85
2022-09-12T07:41:48.675Z,7.63
2022-09-12T07:42:49.950Z,7.57
2022-09-12T07:43:52.033Z,7.78
2022-09-12T07:44:53.799Z,6.88
2022-09-12T07:45:58.223Z,7.43
2022-09-12T07:47:00.210Z,8.00
2022-09-12T07:48:01.637Z,7.40
2022-09-12T07:49:03.143Z,7.30
2022-09-12T07:50:04.596Z,8.48
2022-09-12T07:51:07.379Z,7.28
2022-09-12T07:52:09.008Z,6.78
2022-09-12T07:53:11.194Z,7.50
2022-09-12T07:54:12.544Z,7.63
2022-09-12T07:55:13.895Z,7.35
2022-09-12T07:56:16.401Z,7.82
2022-09-12T07:57:17.992Z,7.30
2022-09-12T07:58:19.301Z,7.50
2022-09-12T07:59:41.418Z,7.43
2022-09-12T08:00:42.315Z,7.45
2022-09-12T08:01:43.692Z,7.70
2022-09-12T08:02:45.252Z,7.07
2022-09-12T08:03:47.896Z,7.10
2022-09-12T08:04:49.265Z,7.40
2022-09-12T08:05:50.637Z,6.32
2022-09-12T08:06:51.964Z,6.68
2022-09-12T08:07:57.206Z,7.25
2022-09-12T08:08:59.503Z,7.30
2022-09-12T08:10:01.315Z,7.22
2022-09-12T08:11:05.285Z,7.30
2022-09-12T08:12:06.699Z,6.78
2022-09-12T08:13:10.663Z,7.28
2022-09-12T08:14:12.162Z,6.85
2022-09-12T08:15:13.501Z,7.28
2022-09-12T08:16:16.239Z,5.97
2022-09-12T08:17:17.600Z,6.95
2022-09-12T08:18:18.885Z,7.35
2022-09-12T08:19:22.599Z,6.63
2022-09-12T08:20:28.156Z,6.20
2022-09-12T08:21:30.616Z,5.72
2022-09-12T08:22:31.971Z,5.53
2022-09-12T08:23:33.655Z,5.80
2022-09-12T08:24:35.000Z,6.13
2022-09-12T08:25:36.265Z,7.32
2022-09-12T08:26:37.887Z,5.90
2022-09-12T08:27:39.199Z,6.10
2022-09-12T08:28:41.019Z,7.05
2022-09-12T08:29:42.401Z,7.10
2022-09-12T08:30:43.698Z,6.90
2022-09-12T08:31:46.308Z,6.65
2022-09-12T08:32:47.657Z,6.40
2022-09-12T08:33:49.025Z,6.80
2022-09-12T08:34:50.390Z,6.93
2022-09-12T08:35:51.648Z,6.45
2022-09-12T08:36:55.675Z,7.05
2022-09-12T08:37:58.108Z,6.60
2022-09-12T08:39:04.587Z,6.32
2022-09-12T08:40:08.313Z,6.93
2022-09-12T08:41:10.073Z,7.45
2022-09-12T08:42:20.163Z,7.15
2022-09-12T08:43:38.576Z,6.90
2022-09-12T08:45:02.945Z,7.63
2022-09-12T08:46:24.447Z,7.45
2022-09-12T08:47:28.640Z,8.00
2022-09-12T08:48:30.953Z,8.05
2022-09-12T08:49:33.813Z,6.40
2022-09-12T08:50:35.475Z,5.53
2022-09-12T08:51:36.910Z,5.95
2022-09-12T08:52:50.640Z,5.65
2022-09-12T08:53:54.612Z,5.35
2022-09-12T08:54:56.389Z,6.10
2022-09-12T08:55:59.107Z,4.80
2022-09-12T08:57:04.911Z,5.32
2022-09-12T08:58:22.735Z,5.10
2022-09-12T08:59:24.722Z,5.55
2022-09-12T09:00:34.150Z,4.80
2022-09-12T09:01:40.613Z,4.70
2022-09-12T09:02:42.087Z,4.40
2022-09-12T09:03:58.422Z,4.75
2022-09-12T09:05:26.126Z,4.75
2022-09-12T09:06:46.571Z,4.63
2022-09-12T09:08:03.567Z,5.10
2022-09-12T09:09:11.869Z,4.65
2022-09-12T09:10:19.841Z,4.82
2022-09-12T09:11:29.064Z,4.60
2022-09-12T09:12:36.366Z,5.00
2022-09-12T09:14:05.194Z,5.03
2022-09-12T09:15:21.365Z,4.45
2022-09-12T09:16:33.317Z,4.57
2022-09-12T09:17:38.590Z,4.68
2022-09-12T09:18:40.297Z,4.70
2022-09-12T09:19:48.823Z,5.10
2022-09-12T09:21:09.469Z,4.40
2022-09-12T09:22:16.255Z,4.32
2022-09-12T09:23:22.375Z,4.05
2022-09-12T09:24:48.325Z,4.00
2022-09-12T09:25:52.548Z,3.90
2022-09-12T09:26:59.233Z,3.95
2022-09-12T09:28:14.351Z,4.03
2022-09-12T09:29:20.043Z,3.95
2022-09-12T09:30:21.630Z,4.13
2022-09-12T09:31:24.184Z,4.22
2022-09-12T09:32:31.355Z,3.80
2022-09-12T09:33:35.942Z,3.95
2022-09-12T09:34:38.982Z,4.18
2022-09-12T09:35:44.156Z,5.18
2022-09-12T09:36:57.787Z,4.57
2022-09-12T09:38:01.316Z,3.97
2022-09-12T09:39:05.856Z,4.15
2022-09-12T09:40:19.996Z,4.00
2022-09-12T09:41:27.416Z,3.65
2022-09-12T09:42:33.050Z,3.90
2022-09-12T09:43:34.424Z,4.18
2022-09-12T09:44:36.294Z,4.63
2022-09-12T09:45:37.921Z,4.25
2022-09-12T09:46:39.373Z,3.55
2022-09-12T09:47:40.738Z,3.67
2022-09-12T09:48:44.602Z,4.10
2022-09-12T09:49:46.266Z,3.80
2022-09-12T09:50:48.991Z,3.55
2022-09-12T09:51:50.508Z,4.22
2022-09-12T09:52:52.371Z,3.50
2022-09-12T09:53:56.049Z,3.80
2022-09-12T09:54:59.256Z,3.85
2022-09-12T09:56:03.280Z,3.72
2022-09-12T09:57:05.119Z,3.40
2022-09-12T09:58:06.607Z,4.20
2022-09-12T09:59:18.349Z,4.03
2022-09-12T10:00:27.346Z,3.72
2022-09-12T10:01:28.817Z,3.50
2022-09-12T10:02:30.198Z,3.90
2022-09-12T10:03:32.843Z,4.28
2022-09-12T10:04:38.094Z,3.92
2022-09-12T10:05:45.844Z,3.50
2022-09-12T10:06:47.320Z,4.03
2022-09-12T10:07:52.015Z,4.05
2022-09-12T10:09:03.968Z,4.15
2022-09-12T10:10:15.893Z,4.20
2022-09-12T10:11:26.849Z,3.72
2022-09-12T10:12:28.470Z,3.50
2022-09-12T10:13:43.429Z,3.30
2022-09-12T10:14:56.034Z,3.22
2022-09-12T10:16:00.282Z,3.28
2022-09-12T10:17:03.379Z,3.55
2022-09-12T10:18:04.893Z,3.45
2022-09-12T10:19:18.525Z,3.60
2022-09-12T10:20:30.116Z,3.20
2022-09-12T10:21:33.677Z,3.58
2022-09-12T10:22:34.991Z,3.42
2022-09-12T10:23:37.570Z,3.30
2022-09-12T10:24:43.516Z,2.95
2022-09-12T10:25:55.056Z,3.08
2022-09-12T10:27:08.325Z,3.05
2022-09-12T10:28:20.712Z,3.00
2022-09-12T10:29:25.280Z,3.42
2022-09-12T10:30:28.416Z,3.13
2022-09-12T10:31:39.049Z,3.20
2022-09-12T10:32:42.178Z,3.20
2022-09-12T10:33:52.450Z,3.20
2022-09-12T10:34:54.950Z,2.92
2022-09-12T10:35:56.763Z,3.10
2022-09-12T10:37:21.060Z,3.90
2022-09-12T10:38:31.534Z,3.30
2022-09-12T10:39:34.376Z,3.28
2022-09-12T10:40:38.345Z,3.70
2022-09-12T10:41:41.325Z,3.65
2022-09-12T10:42:53.153Z,3.25
2022-09-12T10:44:05.755Z,3.20
2022-09-12T10:45:17.435Z,2.80
2022-09-12T10:46:19.196Z,3.67
2022-09-12T10:47:22.078Z,3.30
2022-09-12T10:48:26.981Z,3.35
2022-09-12T10:49:37.830Z,3.30
2022-09-12T10:50:41.342Z,3.10
2022-09-12T10:51:43.269Z,3.50
2022-09-12T10:52:44.592Z,3.20
2022-09-12T10:53:46.729Z,2.95
2022-09-12T10:54:48.587Z,2.90
2022-09-12T10:55:52.822Z,3.13
2022-09-12T10:56:54.112Z,3.67
2022-09-12T10:58:07.964Z,3.50
2022-09-12T10:59:24.342Z,3.40
2022-09-12T11:00:30.547Z,4.00
2022-09-12T11:01:31.991Z,3.58
2022-09-12T11:02:52.471Z,3.50
2022-09-12T11:04:09.818Z,3.17
2022-09-12T11:05:22.430Z,3.20
2022-09-12T11:06:28.334Z,3.75
2022-09-12T11:07:35.391Z,3.20
2022-09-12T11:08:45.008Z,3.58
2022-09-12T11:09:46.384Z,3.70
2022-09-12T11:10:47.696Z,3.60
2022-09-12T11:12:12.108Z,3.80
2022-09-12T11:13:31.912Z,3.50
2022-09-12T11:14:40.789Z,3.28
2022-09-12T11:15:48.955Z,3.58
2022-09-12T11:16:59.930Z,3.70
2022-09-12T11:18:20.156Z,3.30
2022-09-12T11:19:38.419Z,3.40
2022-09-12T11:20:40.002Z,3.80
2022-09-12T11:22:07.815Z,3.90
2022-09-12T11:23:28.113Z,3.13
2022-09-12T11:24:34.748Z,3.60
2022-09-12T11:25:54.912Z,3.83
2022-09-12T11:27:02.660Z,3.28
2022-09-12T11:28:22.565Z,3.60
2022-09-12T11:29:26.886Z,2.70
2022-09-12T11:30:33.941Z,2.53
2022-09-12T11:31:38.893Z,2.40
2022-09-12T11:33:00.215Z,2.78
2022-09-12T11:34:08.964Z,2.58
2022-09-12T11:35:17.293Z,2.45
2022-09-12T11:36:27.349Z,2.13
2022-09-12T11:37:29.024Z,2.97
2022-09-12T11:38:45.857Z,3.47
2022-09-12T11:39:52.266Z,3.47
2022-09-12T11:40:56.096Z,3.50
2022-09-12T11:42:00.118Z,3.55
2022-09-12T11:43:07.600Z,3.15
2022-09-12T11:44:14.828Z,3.20
2022-09-12T11:45:19.616Z,3.30
2022-09-12T11:46:25.167Z,2.83
2022-09-12T11:47:28.700Z,2.60
2022-09-12T11:48:33.078Z,2.55
2022-09-12T11:49:37.855Z,2.25
2022-09-12T11:50:39.225Z,2.40
2022-09-12T11:51:49.781Z,2.15
2022-09-12T11:52:51.848Z,2.45
2022-09-12T11:53:59.506Z,2.40
2022-09-12T11:55:03.869Z,2.33
2022-09-12T11:56:09.313Z,2.33
2022-09-12T11:57:15.070Z,2.60
2022-09-12T11:58:18.315Z,2.10
2022-09-12T11:59:28.216Z,2.20
2022-09-12T12:00:36.202Z,2.30
2022-09-12T12:01:46.354Z,2.47
2022-09-12T12:03:04.978Z,2.10
2022-09-12T12:04:08.270Z,2.78
2022-09-12T12:05:20.612Z,2.25
2022-09-12T12:06:26.590Z,2.30
2022-09-12T12:07:31.537Z,1.85
2022-09-12T12:08:37.802Z,1.90
2022-09-12T12:09:49.819Z,2.10
2022-09-12T12:10:56.312Z,1.90
2022-09-12T12:11:58.330Z,1.70
2022-09-12T12:13:01.938Z,2.22
2022-09-12T12:14:03.204Z,2.10
2022-09-12T12:15:04.719Z,2.25
2022-09-12T12:16:07.277Z,2.08
2022-09-12T12:17:17.669Z,2.35
2022-09-12T12:18:22.459Z,2.30
2022-09-12T12:19:32.979Z,2.15
2022-09-12T12:20:34.671Z,2.30
2022-09-12T12:21:36.449Z,1.88
2022-09-12T12:22:37.762Z,2.10
2022-09-12T12:23:39.555Z,2.00
2022-09-12T12:24:59.725Z,1.77
2022-09-12T12:26:02.074Z,2.10
2022-09-12T12:27:22.398Z,1.98
2022-09-12T12:28:41.806Z,2.40
2022-09-12T12:29:44.601Z,1.90
2022-09-12T12:30:54.978Z,1.90
2022-09-12T12:31:59.373Z,2.25
2022-09-12T12:33:13.223Z,1.95
2022-09-12T12:34:21.761Z,1.83
2022-09-12T12:35:35.378Z,1.70
2022-09-12T12:36:38.553Z,1.92
2022-09-12T12:37:40.047Z,2.20
2022-09-12T12:38:41.452Z,2.00
2022-09-12T12:39:42.924Z,1.88
2022-09-12T12:40:44.386Z,2.13
2022-09-12T12:41:46.091Z,2.15
2022-09-12T12:42:47.402Z,1.70
2022-09-12T12:43:53.069Z,1.55
2022-09-12T12:44:54.389Z,1.80
2022-09-12T12:46:00.901Z,1.60
2022-09-12T12:47:13.817Z,1.77
2022-09-12T12:48:16.791Z,2.13
2022-09-12T12:49:21.170Z,1.60
2022-09-12T12:50:26.084Z,2.08
2022-09-12T12:51:33.021Z,2.03
2022-09-12T12:52:45.149Z,1.98
2022-09-12T12:53:47.002Z,1.77
2022-09-12T12:54:50.795Z,1.70
2022-09-12T12:55:53.033Z,1.60
2022-09-12T12:57:01.074Z,1.40
2022-09-12T12:58:03.474Z,1.70
2022-09-12T12:59:12.578Z,1.70
2022-09-12T13:00:26.284Z,1.75
2022-09-12T13:01:28.212Z,1.90
2022-09-12T13:02:34.247Z,1.83
2022-09-12T13:03:36.390Z,1.88
2022-09-12T13:04:44.123Z,2.08
2022-09-12T13:05:54.099Z,2.00
2022-09-12T13:07:07.931Z,1.88
2022-09-12T13:08:19.176Z,2.00
2022-09-12T13:09:30.838Z,1.42
2022-09-12T13:10:32.230Z,2.00
2022-09-12T13:11:35.226Z,1.90
2022-09-12T13:12:43.849Z,2.00
2022-09-12T13:13:45.146Z,1.88
2022-09-12T13:14:46.831Z,1.70
2022-09-12T13:15:50.162Z,1.60
2022-09-12T13:16:59.868Z,1.70
2022-09-12T13:18:02.551Z,2.38
2022-09-12T13:19:14.875Z,2.00
2022-09-12T13:20:28.301Z,2.15
2022-09-12T13:21:30.538Z,1.80
2022-09-12T13:22:40.483Z,1.88
2022-09-12T13:23:42.196Z,1.63
2022-09-12T13:24:44.672Z,1.80
2022-09-12T13:25:52.239Z,1.67
2022-09-12T13:26:54.279Z,1.77
2022-09-12T13:28:26.286Z,1.90
2022-09-12T13:29:28.097Z,1.70
2022-09-12T13:30:33.747Z,1.88
2022-09-12T13:31:35.139Z,2.10
2022-09-12T13:32:36.441Z,1.83
2022-09-12T13:33:57.251Z,1.90
2022-09-12T13:35:01.492Z,1.98
2022-09-12T13:36:05.978Z,1.77
2022-09-12T13:37:22.680Z,1.80
2022-09-12T13:38:27.544Z,1.80
2022-09-12T13:39:32.123Z,1.83
2022-09-12T13:40:37.198Z,1.65
2022-09-12T13:41:51.025Z,1.90
2022-09-12T13:43:11.120Z,1.60
2022-09-12T13:44:14.800Z,2.00
2022-09-12T13:45:20.832Z,1.70
2022-09-12T13:46:30.165Z,1.80
2022-09-12T13:47:40.738Z,1.80
2022-09-12T13:48:42.618Z,1.90
2022-09-12T13:49:45.657Z,2.20
2022-09-12T13:50:51.797Z,2.05
2022-09-12T13:51:57.924Z,1.73
2022-09-12T13:53:01.694Z,1.80
2022-09-12T13:54:03.931Z,1.90
2022-09-12T13:55:07.474Z,1.73
2022-09-12T13:56:15.679Z,2.35
2022-09-12T13:57:29.339Z,2.65
2022-09-12T13:58:32.135Z,1.92
2022-09-12T13:59:41.074Z,1.80
2022-09-12T14:00:42.529Z,1.60
2022-09-12T14:01:45.054Z,1.80
2022-09-12T14:02:47.502Z,1.95
2022-09-12T14:04:11.537Z,2.35
2022-09-12T14:05:22.051Z,2.42
2022-09-12T14:06:25.026Z,1.60
2022-09-12T14:07:26.431Z,2.03
2022-09-12T14:08:27.724Z,1.80
2022-09-12T14:09:32.146Z,2.33
2022-09-12T14:10:37.881Z,1.90
2022-09-12T14:11:40.088Z,1.85
2022-09-12T14:12:43.795Z,1.80
2022-09-12T14:13:46.032Z,1.70
2022-09-12T14:14:48.819Z,1.60
2022-09-12T14:15:53.234Z,1.83
2022-09-12T14:16:54.737Z,1.98
2022-09-12T14:18:01.208Z,1.85
2022-09-12T14:19:02.719Z,2.00
2022-09-12T14:20:10.085Z,1.92
2022-09-12T14:21:20.201Z,1.90
2022-09-12T14:22:21.661Z,1.90
2022-09-12T14:23:30.558Z,1.83